createdAt,value
2022-08-02T00:00:10.166Z,17.70
2022-08-02T00:01:10.189Z,17.70
2022-08-02T00:02:10.334Z,17.70
2022-08-02T00:03:10.125Z,17.69
2022-08-02T00:04:10.113Z,17.67
2022-08-02T00:05:10.113Z,17.64
2022-08-02T00:06:10.094Z,17.63
2022-08-02T00:07:10.066Z,17.62
2022-08-02T00:08:10.063Z,17.57
2022-08-02T00:09:10.048Z,17.57
2022-08-02T00:10:10.067Z,17.57
2022-08-02T00:11:10.036Z,17.55
2022-08-02T00:12:10.406Z,17.54
2022-08-02T00:13:09.996Z,17.53
2022-08-02T00:14:09.993Z,17.53
2022-08-02T00:15:10.955Z,17.53
2022-08-02T00:16:10.966Z,17.51
2022-08-02T00:17:10.946Z,17.47
2022-08-02T00:18:09.939Z,17.43
2022-08-02T00:19:09.910Z,17.43
2022-08-02T00:20:09.908Z,17.38
2022-08-02T00:21:09.893Z,17.36
2022-08-02T00:22:10.250Z,17.36
2022-08-02T00:23:09.860Z,17.36
2022-08-02T00:24:29.748Z,17.33
2022-08-02T00:25:10.829Z,17.30
2022-08-02T00:26:09.828Z,17.26
2022-08-02T00:27:09.838Z,17.20
2022-08-02T00:28:09.799Z,17.18
2022-08-02T00:29:09.778Z,17.14
2022-08-02T00:30:09.779Z,17.13
2022-08-02T00:31:09.768Z,17.10
2022-08-02T00:32:10.092Z,17.10
2022-08-02T00:33:09.721Z,17.10
2022-08-02T00:34:29.823Z,17.10
2022-08-02T00:35:10.710Z,17.10
2022-08-02T00:36:10.711Z,17.08
2022-08-02T00:37:09.691Z,17.06
2022-08-02T00:38:09.661Z,17.06
2022-08-02T00:39:34.185Z,17.04
2022-08-02T00:40:10.653Z,17.00
2022-08-02T00:41:09.650Z,17.00
2022-08-02T00:42:11.186Z,17.00
2022-08-02T00:43:09.584Z,16.99
2022-08-02T00:44:09.597Z,16.98
2022-08-02T00:45:09.555Z,16.98
2022-08-02T00:46:09.568Z,16.98
2022-08-02T00:47:09.559Z,16.98
2022-08-02T00:48:09.544Z,16.98
2022-08-02T00:49:09.552Z,16.99
2022-08-02T00:50:09.513Z,16.99
2022-08-02T00:51:09.485Z,17.03
2022-08-02T00:52:09.689Z,17.03
2022-08-02T00:53:09.466Z,17.04
2022-08-02T00:54:09.474Z,17.04
2022-08-02T00:55:09.474Z,17.03
2022-08-02T00:56:09.427Z,17.00
2022-08-02T00:57:09.417Z,16.96
2022-08-02T00:58:09.464Z,16.93
2022-08-02T00:59:09.397Z,16.90
2022-08-02T01:00:09.366Z,16.89
2022-08-02T01:01:09.448Z,16.89
2022-08-02T01:02:09.845Z,16.88
2022-08-02T01:03:09.326Z,16.86
2022-08-02T01:04:09.306Z,16.81
2022-08-02T01:05:09.297Z,16.77
2022-08-02T01:06:12.316Z,16.73
2022-08-02T01:07:12.297Z,16.71
2022-08-02T01:08:09.294Z,16.71
2022-08-02T01:09:09.267Z,16.70
2022-08-02T01:10:09.247Z,16.71
2022-08-02T01:11:09.242Z,16.71
2022-08-02T01:12:09.697Z,16.70
2022-08-02T01:13:09.217Z,16.70
2022-08-02T01:14:09.216Z,16.73
2022-08-02T01:15:09.192Z,16.71
2022-08-02T01:16:09.182Z,16.70
2022-08-02T01:17:09.181Z,16.70
2022-08-02T01:18:09.169Z,16.70
2022-08-02T01:19:09.166Z,16.67
2022-08-02T01:20:10.130Z,16.68
2022-08-02T01:21:09.112Z,16.62
2022-08-02T01:22:09.333Z,16.62
2022-08-02T01:23:09.091Z,16.59
2022-08-02T01:24:09.367Z,16.58
2022-08-02T01:25:09.088Z,16.59
2022-08-02T01:26:09.050Z,16.58
2022-08-02T01:27:10.042Z,16.60
2022-08-02T01:28:09.020Z,16.60
2022-08-02T01:29:09.010Z,16.56
2022-08-02T01:30:09.021Z,16.55
2022-08-02T01:31:08.985Z,16.52
2022-08-02T01:32:09.279Z,16.52
2022-08-02T01:33:08.961Z,16.49
2022-08-02T01:34:08.943Z,16.49
2022-08-02T01:35:08.947Z,16.48
2022-08-02T01:36:08.944Z,16.48
2022-08-02T01:37:08.905Z,16.45
2022-08-02T01:38:08.912Z,16.45
2022-08-02T01:39:08.884Z,16.45
2022-08-02T01:40:08.885Z,16.45
2022-08-02T01:41:08.845Z,16.44
2022-08-02T01:42:09.055Z,16.44
2022-08-02T01:43:08.836Z,16.44
2022-08-02T01:44:08.815Z,16.44
2022-08-02T01:45:08.807Z,16.44
2022-08-02T01:46:08.786Z,16.41
2022-08-02T01:47:08.778Z,16.41
2022-08-02T01:48:08.781Z,16.40
2022-08-02T01:49:09.560Z,16.40
2022-08-02T01:50:08.745Z,16.38
2022-08-02T01:51:08.726Z,16.37
2022-08-02T01:52:09.051Z,16.37
2022-08-02T01:53:08.714Z,16.35
2022-08-02T01:54:08.686Z,16.33
2022-08-02T01:55:09.863Z,16.27
2022-08-02T01:56:09.656Z,16.27
2022-08-02T01:57:08.655Z,16.26
2022-08-02T01:58:08.647Z,16.25
2022-08-02T01:59:08.625Z,16.23
2022-08-02T02:00:08.617Z,16.22
2022-08-02T02:01:08.654Z,16.16
2022-08-02T02:02:08.978Z,16.15
2022-08-02T02:03:08.598Z,16.14
2022-08-02T02:04:08.561Z,16.14
2022-08-02T02:05:08.549Z,16.14
2022-08-02T02:06:08.530Z,16.12
2022-08-02T02:07:08.518Z,16.12
2022-08-02T02:08:08.511Z,16.12
2022-08-02T02:09:08.493Z,16.07
2022-08-02T02:10:08.479Z,16.04
2022-08-02T02:12:05.849Z,16.01
2022-08-02T02:12:13.501Z,15.97
2022-08-02T02:13:08.451Z,15.94
2022-08-02T02:14:08.430Z,15.97
2022-08-02T02:15:08.431Z,15.97
2022-08-02T02:16:08.390Z,15.96
2022-08-02T02:17:08.405Z,15.96
2022-08-02T02:18:13.100Z,15.99
2022-08-02T02:19:08.371Z,15.99
2022-08-02T02:20:08.341Z,15.97
2022-08-02T02:21:08.336Z,15.93
2022-08-02T02:22:08.799Z,15.94
2022-08-02T02:23:08.324Z,15.94
2022-08-02T02:24:08.305Z,15.94
2022-08-02T02:25:08.291Z,15.93
2022-08-02T02:26:08.271Z,15.92
2022-08-02T02:27:08.266Z,15.92
2022-08-02T02:28:08.253Z,15.89
2022-08-02T02:29:08.245Z,15.88
2022-08-02T02:30:08.214Z,15.88
2022-08-02T02:31:08.203Z,15.85
2022-08-02T02:32:08.390Z,15.82
2022-08-02T02:33:08.185Z,15.82
2022-08-02T02:34:08.186Z,15.79
2022-08-02T02:35:08.156Z,15.78
2022-08-02T02:36:08.126Z,15.75
2022-08-02T02:37:08.135Z,15.72
2022-08-02T02:38:08.116Z,15.68
2022-08-02T02:39:13.410Z,15.68
2022-08-02T02:40:09.101Z,15.67
2022-08-02T02:41:08.075Z,15.67
2022-08-02T02:42:08.407Z,15.67
2022-08-02T02:43:08.058Z,15.64
2022-08-02T02:44:08.053Z,15.64
2022-08-02T02:45:08.039Z,15.64
2022-08-02T02:46:08.018Z,15.63
2022-08-02T02:47:07.998Z,15.63
2022-08-02T02:48:07.999Z,15.63
2022-08-02T02:49:08.113Z,15.61
2022-08-02T02:50:08.990Z,15.59
2022-08-02T02:51:08.139Z,15.52
2022-08-02T02:52:09.279Z,15.51
2022-08-02T02:53:07.938Z,15.52
2022-08-02T02:54:32.064Z,15.49
2022-08-02T02:55:08.907Z,15.49
2022-08-02T02:56:07.889Z,15.49
2022-08-02T02:57:07.860Z,15.48
2022-08-02T02:58:07.860Z,15.48
2022-08-02T02:59:07.858Z,15.49
2022-08-02T03:00:07.822Z,15.49
2022-08-02T03:01:07.876Z,15.51
2022-08-02T03:02:07.801Z,15.48
2022-08-02T03:03:07.805Z,15.49
2022-08-02T03:04:07.784Z,15.49
2022-08-02T03:05:07.782Z,15.46
2022-08-02T03:06:14.948Z,15.46
2022-08-02T03:07:08.748Z,15.43
2022-08-02T03:08:07.734Z,15.45
2022-08-02T03:09:07.732Z,15.42
2022-08-02T03:10:07.705Z,15.41
2022-08-02T03:11:07.694Z,15.41
2022-08-02T03:12:07.782Z,15.39
2022-08-02T03:13:07.675Z,15.39
2022-08-02T03:14:07.663Z,15.38
2022-08-02T03:15:07.672Z,15.36
2022-08-02T03:16:07.631Z,15.31
2022-08-02T03:17:07.604Z,15.30
2022-08-02T03:18:07.597Z,15.26
2022-08-02T03:19:08.594Z,15.26
2022-08-02T03:20:07.576Z,15.23
2022-08-02T03:21:07.574Z,15.21
2022-08-02T03:22:07.616Z,15.20
2022-08-02T03:23:07.535Z,15.21
2022-08-02T03:24:07.538Z,15.21
2022-08-02T03:25:07.554Z,15.21
2022-08-02T03:26:07.506Z,15.15
2022-08-02T03:27:07.481Z,15.11
2022-08-02T03:28:08.475Z,15.06
2022-08-02T03:29:09.852Z,15.06
2022-08-02T03:30:08.446Z,15.09
2022-08-02T03:31:07.425Z,15.09
2022-08-02T03:32:07.414Z,15.12
2022-08-02T03:33:08.407Z,15.12
2022-08-02T03:34:08.464Z,15.11
2022-08-02T03:35:07.398Z,15.11
2022-08-02T03:36:07.368Z,15.11
2022-08-02T03:37:07.369Z,15.09
2022-08-02T03:38:07.338Z,15.12
2022-08-02T03:39:07.328Z,15.13
2022-08-02T03:40:07.331Z,15.15
2022-08-02T03:41:07.308Z,15.19
2022-08-02T03:42:07.290Z,15.21
2022-08-02T03:43:08.273Z,15.23
2022-08-02T03:44:07.260Z,15.24
2022-08-02T03:45:08.867Z,15.24
2022-08-02T03:46:07.230Z,15.24
2022-08-02T03:47:07.229Z,15.24
2022-08-02T03:48:33.867Z,15.26
2022-08-02T03:49:09.362Z,15.21
2022-08-02T04:02:56.095Z,15.12
2022-08-02T04:03:56.086Z,15.09
2022-08-02T04:04:56.080Z,15.08
2022-08-02T04:06:03.241Z,15.06
2022-08-02T04:06:57.037Z,15.09
2022-08-02T04:08:01.192Z,15.08
2022-08-02T04:08:57.017Z,15.11
2022-08-02T04:09:56.026Z,15.12
2022-08-02T04:10:55.971Z,15.12
2022-08-02T04:11:55.998Z,15.12
2022-08-02T04:12:55.957Z,15.13
2022-08-02T04:13:57.032Z,15.13
2022-08-02T04:14:55.940Z,15.17
2022-08-02T04:15:55.935Z,15.17
2022-08-02T04:16:55.907Z,15.17
2022-08-02T04:17:55.900Z,15.19
2022-08-02T04:18:55.885Z,15.21
2022-08-02T04:19:55.859Z,15.23
2022-08-02T04:20:55.860Z,15.23
2022-08-02T04:21:55.866Z,15.24
2022-08-02T04:22:55.833Z,15.26
2022-08-02T04:23:55.819Z,15.26
2022-08-02T04:24:55.792Z,15.27
2022-08-02T04:25:55.794Z,15.27
2022-08-02T04:26:58.011Z,15.28
2022-08-02T04:28:16.788Z,15.28
2022-08-02T04:28:56.760Z,15.30
2022-08-02T04:29:55.741Z,15.33
2022-08-02T04:30:56.739Z,15.35
2022-08-02T04:31:55.716Z,15.33
2022-08-02T04:32:55.709Z,15.33
2022-08-02T04:33:55.692Z,15.33
2022-08-02T04:35:18.198Z,15.36
2022-08-02T04:35:59.706Z,15.36
2022-08-02T04:36:55.644Z,15.35
2022-08-02T04:38:09.110Z,15.35
2022-08-02T04:38:56.623Z,15.36
2022-08-02T04:39:55.605Z,15.36
2022-08-02T04:40:55.627Z,15.35
2022-08-02T04:41:57.728Z,15.35
2022-08-02T04:42:55.573Z,15.35
2022-08-02T04:43:55.563Z,15.35
2022-08-02T04:44:55.541Z,15.35
2022-08-02T04:45:55.545Z,15.38
2022-08-02T04:46:55.529Z,15.36
2022-08-02T04:48:04.554Z,15.36
2022-08-02T04:48:56.554Z,15.33
2022-08-02T04:49:55.484Z,15.35
2022-08-02T04:50:55.482Z,15.35
2022-08-02T04:51:55.445Z,15.36
2022-08-02T04:52:55.436Z,15.36
2022-08-02T04:53:55.445Z,15.36
2022-08-02T04:54:56.416Z,15.38
2022-08-02T04:55:55.397Z,15.38
2022-08-02T04:56:55.387Z,15.41
2022-08-02T04:57:55.390Z,15.41
2022-08-02T04:58:55.377Z,15.43
2022-08-02T04:59:55.376Z,15.46
2022-08-02T05:00:55.421Z,15.45
2022-08-02T05:01:55.333Z,15.45
2022-08-02T05:02:55.307Z,15.46
2022-08-02T05:03:55.317Z,15.48
2022-08-02T05:04:55.278Z,15.51
2022-08-02T05:05:55.288Z,15.51
2022-08-02T05:06:55.266Z,15.54
2022-08-02T05:07:55.249Z,15.56
2022-08-02T05:08:55.238Z,15.59
2022-08-02T05:09:55.227Z,15.61
2022-08-02T05:10:55.209Z,15.61
2022-08-02T05:11:55.334Z,15.64
2022-08-02T05:12:55.190Z,15.66
2022-08-02T05:13:58.795Z,15.67
2022-08-02T05:14:55.150Z,15.76
2022-08-02T05:15:55.152Z,15.81
2022-08-02T05:16:55.129Z,15.85
2022-08-02T05:17:56.119Z,15.89
2022-08-02T05:18:55.111Z,15.99
2022-08-02T05:19:55.110Z,16.03
2022-08-02T05:20:58.130Z,16.09
2022-08-02T05:21:55.061Z,16.15
2022-08-02T05:22:55.051Z,16.23
2022-08-02T05:23:55.033Z,16.27
2022-08-02T05:24:55.021Z,16.35
2022-08-02T05:25:55.022Z,16.42
2022-08-02T05:26:55.001Z,16.49
2022-08-02T05:27:54.981Z,16.59
2022-08-02T05:28:54.972Z,16.67
2022-08-02T05:29:57.045Z,16.74
2022-08-02T05:30:54.982Z,16.81
2022-08-02T05:31:54.931Z,16.89
2022-08-02T05:32:54.923Z,16.95
2022-08-02T05:33:54.913Z,17.04
2022-08-02T05:34:54.906Z,17.10
2022-08-02T05:35:54.893Z,17.17
2022-08-02T05:36:54.873Z,17.25
2022-08-02T05:37:54.854Z,17.30
2022-08-02T05:39:04.751Z,17.38
2022-08-02T05:39:56.417Z,17.44
2022-08-02T05:40:55.320Z,17.48
2022-08-02T05:41:54.796Z,17.53
2022-08-02T05:42:55.776Z,17.57
2022-08-02T05:43:54.778Z,17.62
2022-08-02T05:44:54.773Z,17.67
2022-08-02T05:45:54.785Z,17.71
2022-08-02T05:46:54.747Z,17.74
2022-08-02T05:47:54.733Z,17.78
2022-08-02T05:48:54.749Z,17.81
2022-08-02T05:49:54.708Z,17.84
2022-08-02T05:50:54.710Z,17.88
2022-08-02T05:51:54.679Z,17.92
2022-08-02T05:52:54.668Z,17.95
2022-08-02T05:53:54.658Z,18.00
2022-08-02T05:54:54.639Z,18.04
2022-08-02T05:55:54.651Z,18.07
2022-08-02T05:56:54.619Z,18.12
2022-08-02T05:57:54.598Z,18.17
2022-08-02T05:58:54.588Z,18.21
2022-08-02T05:59:54.581Z,18.24
2022-08-02T06:00:54.560Z,18.28
2022-08-02T06:01:54.670Z,18.33
2022-08-02T06:02:54.530Z,18.37
2022-08-02T06:03:54.531Z,18.43
2022-08-02T06:04:54.508Z,18.46
2022-08-02T06:05:54.510Z,18.50
2022-08-02T06:06:54.482Z,18.55
2022-08-02T06:07:54.466Z,18.58
2022-08-02T06:08:54.449Z,18.62
2022-08-02T06:09:54.453Z,18.64
2022-08-02T06:10:54.441Z,18.65
2022-08-02T06:12:00.665Z,18.68
2022-08-02T06:12:55.401Z,18.73
2022-08-02T06:13:54.393Z,18.74
2022-08-02T06:14:54.617Z,18.74
2022-08-02T06:15:54.373Z,18.76
2022-08-02T06:16:54.342Z,18.76
2022-08-02T06:17:54.342Z,18.77
2022-08-02T06:18:54.322Z,18.80
2022-08-02T06:19:54.313Z,18.82
2022-08-02T06:20:54.310Z,18.83
2022-08-02T06:22:37.546Z,18.86
2022-08-02T06:22:55.275Z,18.87
2022-08-02T06:23:58.063Z,18.92
2022-08-02T06:24:55.264Z,18.92
2022-08-02T06:25:54.249Z,18.97
2022-08-02T06:26:55.225Z,18.99
2022-08-02T06:27:54.217Z,19.02
2022-08-02T06:28:54.194Z,19.02
2022-08-02T06:29:54.183Z,19.06
2022-08-02T06:30:54.175Z,19.08
2022-08-02T06:31:54.178Z,19.11
2022-08-02T06:32:54.145Z,19.13
2022-08-02T06:33:55.152Z,19.14
2022-08-02T06:34:54.116Z,19.15
2022-08-02T06:35:54.107Z,19.17
2022-08-02T06:36:54.097Z,19.21
2022-08-02T06:37:58.677Z,19.23
2022-08-02T06:38:54.067Z,19.24
2022-08-02T06:39:54.060Z,19.25
2022-08-02T06:40:54.047Z,19.31
2022-08-02T06:41:54.018Z,19.33
2022-08-02T06:42:54.009Z,19.35
2022-08-02T06:43:54.000Z,19.39
2022-08-02T06:44:57.432Z,19.40
2022-08-02T06:45:53.997Z,19.42
2022-08-02T06:47:09.696Z,19.46
2022-08-02T06:47:54.963Z,19.48
2022-08-02T06:48:53.938Z,19.53
2022-08-02T06:49:54.937Z,19.54
2022-08-02T06:50:53.933Z,19.58
2022-08-02T06:51:53.920Z,19.61
2022-08-02T06:52:53.880Z,19.68
2022-08-02T06:53:53.870Z,19.70
2022-08-02T06:54:53.859Z,19.73
2022-08-02T06:55:53.853Z,19.78
2022-08-02T06:56:53.845Z,19.83
2022-08-02T06:57:53.951Z,19.87
2022-08-02T06:58:53.813Z,19.91
2022-08-02T06:59:53.808Z,19.93
2022-08-02T07:00:53.791Z,19.97
2022-08-02T07:01:53.821Z,19.98
2022-08-02T07:02:53.745Z,20.02
2022-08-02T07:03:53.733Z,20.08
2022-08-02T07:04:53.727Z,20.12
2022-08-02T07:05:53.724Z,20.20
2022-08-02T07:06:53.684Z,20.25
2022-08-02T07:07:53.678Z,20.28
2022-08-02T07:09:18.267Z,20.33
2022-08-02T07:10:00.462Z,20.38
2022-08-02T07:10:54.666Z,20.41
2022-08-02T07:11:53.645Z,20.42
2022-08-02T07:12:54.829Z,20.46
2022-08-02T07:13:53.615Z,20.50
2022-08-02T07:14:54.588Z,20.51
2022-08-02T07:15:53.596Z,20.56
2022-08-02T07:16:53.570Z,20.59
2022-08-02T07:17:53.553Z,20.64
2022-08-02T07:18:53.535Z,20.64
2022-08-02T07:19:53.535Z,20.65
2022-08-02T07:20:53.517Z,20.65
2022-08-02T07:21:56.428Z,20.68
2022-08-02T07:22:53.486Z,20.69
2022-08-02T07:23:53.480Z,20.74
2022-08-02T07:24:53.485Z,20.76
2022-08-02T07:26:01.717Z,20.80
2022-08-02T07:27:10.821Z,20.80
2022-08-02T07:27:54.438Z,20.79
2022-08-02T07:28:53.419Z,20.79
2022-08-02T07:29:53.412Z,20.79
2022-08-02T07:30:53.422Z,20.79
2022-08-02T07:31:53.392Z,20.77
2022-08-02T07:33:04.832Z,20.77
2022-08-02T07:33:54.356Z,20.79
2022-08-02T07:34:54.148Z,20.86
2022-08-02T07:35:53.363Z,20.89
2022-08-02T07:36:53.333Z,20.95
2022-08-02T07:38:02.070Z,20.98
2022-08-02T07:38:54.308Z,21.02
2022-08-02T07:39:53.291Z,21.06
2022-08-02T07:40:53.301Z,21.09
2022-08-02T07:41:53.262Z,21.13
2022-08-02T07:42:56.517Z,21.17
2022-08-02T07:43:54.250Z,21.23
2022-08-02T07:44:53.223Z,21.27
2022-08-02T07:45:55.903Z,21.29
2022-08-02T07:46:53.203Z,21.35
2022-08-02T07:47:53.192Z,21.38
2022-08-02T07:48:53.222Z,21.41
2022-08-02T07:49:53.173Z,21.44
2022-08-02T07:50:53.166Z,21.50
2022-08-02T07:51:53.148Z,21.51
2022-08-02T07:52:57.250Z,21.54
2022-08-02T07:54:02.671Z,21.56
2022-08-02T07:54:54.106Z,21.57
2022-08-02T07:55:53.098Z,21.59
2022-08-02T07:56:58.389Z,21.61
2022-08-02T07:57:54.055Z,21.63
2022-08-02T07:58:53.046Z,21.67
2022-08-02T07:59:53.036Z,21.72
2022-08-02T08:00:53.037Z,21.78
2022-08-02T08:01:53.074Z,21.82
2022-08-02T08:02:57.330Z,21.88
2022-08-02T08:03:53.978Z,21.91
2022-08-02T08:04:52.966Z,21.92
2022-08-02T08:05:52.967Z,21.95
2022-08-02T08:06:52.943Z,22.01
2022-08-02T08:07:52.927Z,22.06
2022-08-02T08:08:52.919Z,22.13
2022-08-02T08:09:56.421Z,22.16
2022-08-02T08:10:52.900Z,22.22
2022-08-02T08:11:52.878Z,22.29
2022-08-02T08:12:52.861Z,22.35
2022-08-02T08:13:52.852Z,22.38
2022-08-02T08:14:52.841Z,22.43
2022-08-02T08:15:52.892Z,22.47
2022-08-02T08:16:52.812Z,22.52
2022-08-02T08:17:52.780Z,22.56
2022-08-02T08:18:52.789Z,22.62
2022-08-02T08:19:53.188Z,22.67
2022-08-02T08:20:52.766Z,22.71
2022-08-02T08:21:52.734Z,22.77
2022-08-02T08:22:52.731Z,22.80
2022-08-02T08:23:52.705Z,22.86
2022-08-02T08:24:52.705Z,22.92
2022-08-02T08:25:52.691Z,23.04
2022-08-02T08:26:52.677Z,23.19
2022-08-02T08:27:52.663Z,23.32
2022-08-02T08:28:52.655Z,23.39
2022-08-02T08:29:52.634Z,23.46
2022-08-02T08:30:52.645Z,23.53
2022-08-02T08:31:52.631Z,23.57
2022-08-02T08:32:52.595Z,23.62
2022-08-02T08:33:52.575Z,23.68
2022-08-02T08:34:52.587Z,23.76
2022-08-02T08:35:52.576Z,23.85
2022-08-02T08:36:52.558Z,23.95
2022-08-02T08:37:52.547Z,24.02
2022-08-02T08:38:52.520Z,24.12
2022-08-02T08:39:56.224Z,24.17
2022-08-02T08:40:53.507Z,24.20
2022-08-02T08:41:52.488Z,24.26
2022-08-02T08:42:52.468Z,24.27
2022-08-02T08:43:53.458Z,24.34
2022-08-02T08:44:52.449Z,24.38
2022-08-02T08:45:55.837Z,24.41
2022-08-02T08:46:52.431Z,24.45
2022-08-02T08:47:52.415Z,24.52
2022-08-02T08:48:52.453Z,24.45
2022-08-02T08:49:53.365Z,24.47
2022-08-02T08:50:52.393Z,24.44
2022-08-02T08:51:53.357Z,24.47
2022-08-02T08:52:52.359Z,24.50
2022-08-02T08:53:52.329Z,24.53
2022-08-02T08:54:52.311Z,24.59
2022-08-02T08:55:52.301Z,24.63
2022-08-02T08:56:52.304Z,24.69
2022-08-02T08:57:52.287Z,24.71
2022-08-02T08:58:52.274Z,24.77
2022-08-02T08:59:52.251Z,24.80
2022-08-02T09:00:52.367Z,24.82
2022-08-02T09:01:52.266Z,24.88
2022-08-02T09:02:52.246Z,24.92
2022-08-02T09:03:52.203Z,25.00
2022-08-02T09:04:55.019Z,25.01
2022-08-02T09:05:52.193Z,25.13
2022-08-02T09:06:52.164Z,25.20
2022-08-02T09:07:52.165Z,25.31
2022-08-02T09:08:52.155Z,25.42
2022-08-02T09:09:52.174Z,25.52
2022-08-02T09:10:52.124Z,25.64
2022-08-02T09:11:52.095Z,25.72
2022-08-02T09:12:52.095Z,25.83
2022-08-02T09:13:52.096Z,25.93
2022-08-02T09:14:52.070Z,26.05
2022-08-02T09:15:52.049Z,26.15
2022-08-02T09:16:52.038Z,26.11
2022-08-02T09:17:52.036Z,26.17
2022-08-02T09:18:52.018Z,26.22
2022-08-02T09:19:52.002Z,26.29
2022-08-02T09:20:52.011Z,26.37
2022-08-02T09:21:52.979Z,26.47
2022-08-02T09:22:51.998Z,26.43
2022-08-02T09:23:51.948Z,26.31
2022-08-02T09:24:51.970Z,26.32
2022-08-02T09:25:59.042Z,26.32
2022-08-02T09:26:52.919Z,26.37
2022-08-02T09:27:51.924Z,26.44
2022-08-02T09:28:51.901Z,26.50
2022-08-02T09:30:13.613Z,26.58
2022-08-02T09:30:52.854Z,26.68
2022-08-02T09:31:51.862Z,26.74
2022-08-02T09:32:51.859Z,26.83
2022-08-02T09:33:51.832Z,26.91
2022-08-02T09:34:51.844Z,26.98
2022-08-02T09:36:06.454Z,27.01
2022-08-02T09:36:54.416Z,27.09
2022-08-02T09:37:52.782Z,27.02
2022-08-02T09:38:51.764Z,27.04
2022-08-02T09:39:51.734Z,27.02
2022-08-02T09:40:52.745Z,27.01
2022-08-02T09:41:51.725Z,27.01
2022-08-02T09:42:51.704Z,27.01
2022-08-02T09:43:51.930Z,26.99
2022-08-02T09:44:52.675Z,27.05
2022-08-02T09:45:51.675Z,27.09
2022-08-02T10:03:22.566Z,27.24
2022-08-02T10:04:21.650Z,27.32
2022-08-02T10:05:17.829Z,27.41
2022-08-02T10:06:17.821Z,27.43
2022-08-02T10:07:17.808Z,27.53
2022-08-02T10:08:17.790Z,27.62
2022-08-02T10:09:17.748Z,27.74
2022-08-02T10:10:17.773Z,27.85
2022-08-02T10:11:17.752Z,27.92
2022-08-02T10:12:17.746Z,27.98
2022-08-02T10:13:21.592Z,28.06
2022-08-02T10:14:17.700Z,28.11
2022-08-02T10:15:17.691Z,28.17
2022-08-02T10:16:18.661Z,28.23
2022-08-02T10:17:25.686Z,28.33
2022-08-02T10:18:36.171Z,28.48
2022-08-02T10:19:18.641Z,28.63
2022-08-02T10:20:18.630Z,28.51
2022-08-02T10:21:17.607Z,28.40
2022-08-02T10:22:19.710Z,28.26
2022-08-02T10:23:17.593Z,28.21
2022-08-02T10:24:17.570Z,28.28
2022-08-02T10:25:17.573Z,28.11
2022-08-02T10:26:17.539Z,27.94
2022-08-02T10:27:17.546Z,27.96
2022-08-02T10:28:18.522Z,28.04
2022-08-02T10:29:17.525Z,28.07
2022-08-02T10:30:17.514Z,28.19
2022-08-02T10:31:17.482Z,28.35
2022-08-02T10:32:18.485Z,28.35
2022-08-02T10:33:18.455Z,28.29
2022-08-02T10:34:17.449Z,28.14
2022-08-02T10:35:18.538Z,28.11
2022-08-02T10:36:17.426Z,28.25
2022-08-02T10:37:17.403Z,28.31
2022-08-02T10:38:17.387Z,28.25
2022-08-02T10:39:17.364Z,28.32
2022-08-02T10:40:17.384Z,28.28
2022-08-02T10:41:17.355Z,28.38
2022-08-02T10:42:17.355Z,28.41
2022-08-02T10:43:17.334Z,28.56
2022-08-02T10:44:24.986Z,28.65
2022-08-02T10:45:18.306Z,28.77
2022-08-02T10:46:17.297Z,28.84
2022-08-02T10:47:17.292Z,28.80
2022-08-02T10:48:17.258Z,28.72
2022-08-02T10:49:39.035Z,28.73
2022-08-02T10:50:18.252Z,28.69
2022-08-02T10:51:17.218Z,28.66
2022-08-02T10:52:18.217Z,28.65
2022-08-02T10:53:17.203Z,28.44
2022-08-02T10:54:17.198Z,28.51
2022-08-02T10:55:22.083Z,28.54
2022-08-02T10:56:18.159Z,28.53
2022-08-02T10:57:17.161Z,28.65
2022-08-02T10:58:18.215Z,28.78
2022-08-02T10:59:17.122Z,28.88
2022-08-02T11:00:17.346Z,29.08
2022-08-02T11:01:17.149Z,29.20
2022-08-02T11:02:17.507Z,29.31
2022-08-02T11:03:17.092Z,29.50
2022-08-02T11:04:17.075Z,29.65
2022-08-02T11:05:17.074Z,29.74
2022-08-02T11:06:25.566Z,29.72
2022-08-02T11:07:18.030Z,29.86
2022-08-02T11:08:17.033Z,29.97
2022-08-02T11:09:17.012Z,30.14
2022-08-02T11:10:16.995Z,30.26
2022-08-02T11:11:17.000Z,30.46
2022-08-02T11:12:16.963Z,30.65
2022-08-02T11:13:16.989Z,30.83
2022-08-02T11:14:16.925Z,30.94
2022-08-02T11:15:16.931Z,31.05
2022-08-02T11:16:16.909Z,31.04
2022-08-02T11:17:16.895Z,30.84
2022-08-02T11:18:16.907Z,30.75
2022-08-02T11:19:16.867Z,30.90
2022-08-02T11:20:16.861Z,30.98
2022-08-02T11:21:16.849Z,30.76
2022-08-02T11:22:16.828Z,30.31
2022-08-02T11:23:16.837Z,30.05
2022-08-02T11:24:16.802Z,29.78
2022-08-02T11:25:16.797Z,29.82
2022-08-02T11:26:16.773Z,29.94
2022-08-02T11:27:16.776Z,30.14
2022-08-02T11:28:16.769Z,30.31
2022-08-02T11:29:16.750Z,30.52
2022-08-02T11:30:16.724Z,30.74
2022-08-02T11:31:16.709Z,30.89
2022-08-02T11:32:16.710Z,30.81
2022-08-02T11:33:16.691Z,30.68
2022-08-02T11:34:37.063Z,30.47
2022-08-02T11:35:17.671Z,30.33
2022-08-02T11:36:16.647Z,30.29
2022-08-02T11:37:16.659Z,30.18
2022-08-02T11:38:16.647Z,30.38
2022-08-02T11:39:16.614Z,30.67
2022-08-02T11:40:19.052Z,30.76
2022-08-02T11:41:16.583Z,30.98
2022-08-02T11:42:17.575Z,31.24
2022-08-02T11:43:16.563Z,31.42
2022-08-02T11:44:16.545Z,31.65
2022-08-02T11:45:21.132Z,31.82
2022-08-02T11:46:17.522Z,31.99
2022-08-02T11:47:16.506Z,32.03
2022-08-02T11:48:16.477Z,32.13
2022-08-02T11:49:16.578Z,32.15
2022-08-02T11:50:16.448Z,32.24
2022-08-02T11:51:16.449Z,32.48
2022-08-02T11:52:16.636Z,32.69
2022-08-02T11:53:16.427Z,32.91
2022-08-02T11:54:16.418Z,33.17
2022-08-02T11:55:16.400Z,33.45
2022-08-02T11:56:21.915Z,33.33
2022-08-02T11:57:20.278Z,33.19
2022-08-02T11:58:16.358Z,33.36
2022-08-02T11:59:16.362Z,33.63
2022-08-02T12:00:16.331Z,33.90
2022-08-02T12:01:16.323Z,33.94
2022-08-02T12:02:16.309Z,34.02
2022-08-02T12:03:19.607Z,34.16
2022-08-02T12:04:16.309Z,34.38
2022-08-02T12:05:16.289Z,34.57
2022-08-02T12:06:16.934Z,34.72
2022-08-02T12:07:16.264Z,34.77
2022-08-02T12:08:19.085Z,34.88
2022-08-02T12:09:18.671Z,34.80
2022-08-02T12:10:19.164Z,34.94
2022-08-02T12:11:16.203Z,34.83
2022-08-02T12:12:16.195Z,34.27
2022-08-02T12:13:16.166Z,33.36
2022-08-02T12:14:16.145Z,32.64
2022-08-02T12:15:16.166Z,32.32
2022-08-02T12:16:16.126Z,31.84
2022-08-02T12:17:16.124Z,31.95
2022-08-02T12:18:16.113Z,32.30
2022-08-02T12:19:16.097Z,32.64
2022-08-02T12:20:16.087Z,33.06
2022-08-02T12:21:16.070Z,33.46
2022-08-02T12:22:16.389Z,33.57
2022-08-02T12:23:16.040Z,33.46
2022-08-02T12:24:16.040Z,33.68
2022-08-02T12:25:16.030Z,33.71
2022-08-02T12:26:17.010Z,33.85
2022-08-02T12:27:15.989Z,33.90
2022-08-02T12:28:17.782Z,34.17
2022-08-02T12:29:15.971Z,34.20
2022-08-02T12:30:16.977Z,34.20
2022-08-02T12:31:16.942Z,34.45
2022-08-02T12:32:15.932Z,34.73
2022-08-02T12:33:15.922Z,35.08
2022-08-02T12:34:15.904Z,35.44
2022-08-02T12:35:26.762Z,35.82
2022-08-02T12:36:16.875Z,36.15
2022-08-02T12:37:15.864Z,36.31
2022-08-02T12:38:15.849Z,36.42
2022-08-02T12:39:15.860Z,36.63
2022-08-02T12:40:15.847Z,36.73
2022-08-02T12:41:31.788Z,36.35
2022-08-02T12:42:17.088Z,35.99
2022-08-02T12:43:15.786Z,36.03
2022-08-02T12:44:15.781Z,35.76
2022-08-02T12:45:15.777Z,34.81
2022-08-02T12:46:15.750Z,34.80
2022-08-02T12:47:15.741Z,34.94
2022-08-02T12:48:15.730Z,35.30
2022-08-02T12:49:18.251Z,35.72
2022-08-02T12:50:16.701Z,35.36
2022-08-02T12:51:15.732Z,35.35
2022-08-02T12:52:16.132Z,35.63
2022-08-02T12:53:15.671Z,35.67
2022-08-02T12:54:18.206Z,35.20
2022-08-02T12:55:15.657Z,35.35
2022-08-02T12:56:15.741Z,35.63
2022-08-02T12:57:15.620Z,35.62
2022-08-02T12:58:15.599Z,35.26
2022-08-02T12:59:15.611Z,34.70
2022-08-02T13:00:15.594Z,34.39
2022-08-02T13:01:15.633Z,33.98
2022-08-02T13:02:15.869Z,33.49
2022-08-02T13:04:09.944Z,33.08
2022-08-02T13:04:16.722Z,32.73
2022-08-02T13:05:15.532Z,32.51
2022-08-02T13:06:41.037Z,32.32
2022-08-02T13:07:16.483Z,32.14
2022-08-02T13:08:15.485Z,31.76
2022-08-02T13:09:15.498Z,31.50
2022-08-02T13:10:15.465Z,31.18
2022-08-02T13:11:15.446Z,30.91
2022-08-02T13:12:15.994Z,30.81
2022-08-02T13:13:15.419Z,30.80
2022-08-02T13:14:15.411Z,30.81
2022-08-02T13:15:50.375Z,30.87
2022-08-02T13:16:17.364Z,30.93
2022-08-02T13:17:16.370Z,30.99
2022-08-02T13:18:15.350Z,31.06
2022-08-02T13:19:15.361Z,31.80
2022-08-02T13:20:15.348Z,33.33
2022-08-02T13:21:39.627Z,34.72